createdAt,value
2017-09-23T00:00:47.876Z,1014.6
2017-09-23T00:01:47.868Z,1014.59
2017-09-23T00:02:47.851Z,1014.58
2017-09-23T00:03:47.842Z,1014.6
2017-09-23T00:04:47.829Z,1014.61
2017-09-23T00:05:47.818Z,1014.61
2017-09-23T00:06:47.806Z,1014.63
2017-09-23T00:07:47.791Z,1014.66
2017-09-23T00:08:47.782Z,1014.63
2017-09-23T00:09:47.766Z,1014.67
2017-09-23T00:10:47.755Z,1014.65
2017-09-23T00:11:47.743Z,1014.62
2017-09-23T00:12:47.730Z,1014.62
2017-09-23T00:13:47.717Z,1014.59
2017-09-23T00:14:47.704Z,1014.63
2017-09-23T00:15:47.691Z,1014.61
2017-09-23T00:16:47.680Z,1014.64
2017-09-23T00:17:47.670Z,1014.65
2017-09-23T00:18:47.655Z,1014.64
2017-09-23T00:19:47.646Z,1014.65
2017-09-23T00:20:47.629Z,1014.65
2017-09-23T00:21:47.623Z,1014.66
2017-09-23T00:22:47.607Z,1014.66
2017-09-23T00:23:47.594Z,1014.6
2017-09-23T00:24:47.582Z,1014.63
2017-09-23T00:25:47.568Z,1014.62
2017-09-23T00:26:47.558Z,1014.63
2017-09-23T00:27:47.546Z,1014.59
2017-09-23T00:28:47.532Z,1014.58
2017-09-23T00:29:47.519Z,1014.56
2017-09-23T00:30:47.506Z,1014.57
2017-09-23T00:31:47.496Z,1014.53
2017-09-23T00:32:47.483Z,1014.54
2017-09-23T00:33:47.470Z,1014.52
2017-09-23T00:34:47.458Z,1014.51
2017-09-23T00:35:47.446Z,1014.49
2017-09-23T00:36:47.432Z,1014.49
2017-09-23T00:37:47.423Z,1014.49
2017-09-23T00:38:47.419Z,1014.48
2017-09-23T00:39:47.396Z,1014.46
2017-09-23T00:40:47.383Z,1014.45
2017-09-23T00:41:47.422Z,1014.48
2017-09-23T00:42:47.358Z,1014.45
2017-09-23T00:43:47.349Z,1014.46
2017-09-23T00:44:47.334Z,1014.45
2017-09-23T00:45:47.323Z,1014.44
2017-09-23T00:46:47.312Z,1014.43
2017-09-23T00:47:47.304Z,1014.42
2017-09-23T00:48:47.286Z,1014.39
2017-09-23T00:49:47.272Z,1014.39
2017-09-23T00:50:47.262Z,1014.41
2017-09-23T00:51:47.249Z,1014.4
2017-09-23T00:52:47.235Z,1014.41
2017-09-23T00:53:47.231Z,1014.44
2017-09-23T00:54:47.212Z,1014.39
2017-09-23T00:55:47.199Z,1014.42
2017-09-23T00:56:47.187Z,1014.4
2017-09-23T00:57:47.178Z,1014.4
2017-09-23T00:58:47.162Z,1014.39
2017-09-23T00:59:47.149Z,1014.4
2017-09-23T01:00:47.137Z,1014.39
2017-09-23T01:01:47.128Z,1014.45
2017-09-23T01:02:47.115Z,1014.45
2017-09-23T01:03:47.105Z,1014.41
2017-09-23T01:04:47.089Z,1014.39
2017-09-23T01:05:47.080Z,1014.41
2017-09-23T01:06:47.062Z,1014.38
2017-09-23T01:07:47.054Z,1014.42
2017-09-23T01:08:47.038Z,1014.36
2017-09-23T01:09:47.024Z,1014.44
2017-09-23T01:10:47.016Z,1014.44
2017-09-23T01:11:47.002Z,1014.42
2017-09-23T01:12:46.988Z,1014.43
2017-09-23T01:13:46.976Z,1014.5
2017-09-23T01:14:46.963Z,1014.44
2017-09-23T01:15:46.951Z,1014.44
2017-09-23T01:16:46.938Z,1014.47
2017-09-23T01:17:46.928Z,1014.45
2017-09-23T01:18:46.914Z,1014.46
2017-09-23T01:19:46.902Z,1014.47
2017-09-23T01:20:46.889Z,1014.45
2017-09-23T01:21:46.890Z,1014.5
2017-09-23T01:22:46.863Z,1014.51
2017-09-23T01:23:46.851Z,1014.55
2017-09-23T01:24:46.841Z,1014.52
2017-09-23T01:25:46.828Z,1014.51
2017-09-23T01:26:46.863Z,1014.52
2017-09-23T01:27:46.800Z,1014.49
2017-09-23T01:28:46.792Z,1014.49
2017-09-23T01:29:46.777Z,1014.46
2017-09-23T01:30:46.764Z,1014.49
2017-09-23T01:31:46.751Z,1014.43
2017-09-23T01:32:46.742Z,1014.46
2017-09-23T01:33:46.729Z,1014.48
2017-09-23T01:34:46.764Z,1014.48
2017-09-23T01:35:46.706Z,1014.48
2017-09-23T01:36:46.688Z,1014.51
2017-09-23T01:37:46.679Z,1014.49
2017-09-23T01:38:46.663Z,1014.48
2017-09-23T01:39:46.652Z,1014.49
2017-09-23T01:40:46.638Z,1014.49
2017-09-23T01:41:46.627Z,1014.49
2017-09-23T01:42:46.615Z,1014.52
2017-09-23T01:43:46.603Z,1014.49
2017-09-23T01:44:46.589Z,1014.52
2017-09-23T01:45:46.578Z,1014.5
2017-09-23T01:46:46.564Z,1014.48
2017-09-23T01:47:46.557Z,1014.52
2017-09-23T01:48:46.540Z,1014.51
2017-09-23T01:49:46.525Z,1014.57
2017-09-23T01:50:46.515Z,1014.52
2017-09-23T01:51:46.501Z,1014.54
2017-09-23T01:52:46.491Z,1014.5
2017-09-23T01:53:46.686Z,1014.55
2017-09-23T01:54:46.464Z,1014.51
2017-09-23T01:55:46.460Z,1014.55
2017-09-23T01:56:46.441Z,1014.51
2017-09-23T01:57:46.427Z,1014.51
2017-09-23T01:58:46.414Z,1014.52
2017-09-23T01:59:46.404Z,1014.52
2017-09-23T02:00:46.389Z,1014.5
2017-09-23T02:01:46.377Z,1014.5
2017-09-23T02:02:46.365Z,1014.52
2017-09-23T02:03:46.352Z,1014.5
2017-09-23T02:04:46.339Z,1014.48
2017-09-23T02:05:46.329Z,1014.51
2017-09-23T02:06:46.316Z,1014.53
2017-09-23T02:07:46.303Z,1014.54
2017-09-23T02:08:46.291Z,1014.53
2017-09-23T02:09:46.277Z,1014.52
2017-09-23T02:10:46.266Z,1014.52
2017-09-23T02:11:46.253Z,1014.52
2017-09-23T02:12:46.245Z,1014.53
2017-09-23T02:13:46.228Z,1014.56
2017-09-23T02:14:46.216Z,1014.58
2017-09-23T02:15:46.202Z,1014.55
2017-09-23T02:16:46.191Z,1014.6
2017-09-23T02:17:46.179Z,1014.59
2017-09-23T02:18:46.167Z,1014.61
2017-09-23T02:19:46.154Z,1014.63
2017-09-23T02:20:46.140Z,1014.61
2017-09-23T02:21:46.130Z,1014.63
2017-09-23T02:22:46.115Z,1014.62
2017-09-23T02:23:46.107Z,1014.65
2017-09-23T02:24:46.092Z,1014.63
2017-09-23T02:25:46.080Z,1014.66
2017-09-23T02:26:46.066Z,1014.65
2017-09-23T02:27:46.055Z,1014.65
2017-09-23T02:28:46.042Z,1014.67
2017-09-23T02:29:46.030Z,1014.69
2017-09-23T02:30:46.018Z,1014.71
2017-09-23T02:31:46.004Z,1014.68
2017-09-23T02:32:45.994Z,1014.68
2017-09-23T02:33:45.980Z,1014.68
2017-09-23T02:34:45.970Z,1014.62
2017-09-23T02:35:45.957Z,1014.66
2017-09-23T02:36:45.944Z,1014.65
2017-09-23T02:37:45.990Z,1014.67
2017-09-23T02:38:45.920Z,1014.63
2017-09-23T02:39:45.908Z,1014.61
2017-09-23T02:40:45.893Z,1014.61
2017-09-23T02:41:45.880Z,1014.62
2017-09-23T02:42:45.869Z,1014.64
2017-09-23T02:43:45.856Z,1014.59
2017-09-23T02:44:45.846Z,1014.64
2017-09-23T02:45:45.831Z,1014.65
2017-09-23T02:46:45.823Z,1014.64
2017-09-23T02:47:45.811Z,1014.63
2017-09-23T02:48:45.793Z,1014.63
2017-09-23T02:49:45.782Z,1014.64
2017-09-23T02:50:45.772Z,1014.64
2017-09-23T02:51:45.755Z,1014.61
2017-09-23T02:52:45.797Z,1014.62
2017-09-23T02:53:45.734Z,1014.63
2017-09-23T02:54:45.722Z,1014.6
2017-09-23T02:55:45.708Z,1014.63
2017-09-23T02:56:45.696Z,1014.65
2017-09-23T02:57:45.685Z,1014.66
2017-09-23T02:58:45.670Z,1014.69
2017-09-23T02:59:45.665Z,1014.72
2017-09-23T03:00:45.645Z,1014.69
2017-09-23T03:01:45.634Z,1014.7
2017-09-23T03:02:45.622Z,1014.69
2017-09-23T03:03:45.607Z,1014.74
2017-09-23T03:04:45.595Z,1014.71
2017-09-23T03:05:45.583Z,1014.71
2017-09-23T03:06:45.571Z,1014.7
2017-09-23T03:07:45.557Z,1014.73
2017-09-23T03:08:45.547Z,1014.71
2017-09-23T03:09:45.532Z,1014.72
2017-09-23T03:10:45.521Z,1014.71
2017-09-23T03:11:45.509Z,1014.74
2017-09-23T03:12:45.498Z,1014.72
2017-09-23T03:13:45.486Z,1014.74
2017-09-23T03:14:45.471Z,1014.74
2017-09-23T03:15:45.465Z,1014.78
2017-09-23T03:16:45.447Z,1014.76
2017-09-23T03:17:45.433Z,1014.77
2017-09-23T03:18:45.428Z,1014.82
2017-09-23T03:19:45.408Z,1014.79
2017-09-23T03:20:45.400Z,1014.79
2017-09-23T03:21:45.382Z,1014.81
2017-09-23T03:22:45.370Z,1014.82
2017-09-23T03:23:45.359Z,1014.79
2017-09-23T03:24:45.346Z,1014.82
2017-09-23T03:25:45.332Z,1014.83
2017-09-23T03:26:45.320Z,1014.81
2017-09-23T03:27:45.308Z,1014.8
2017-09-23T03:28:45.346Z,1014.78
2017-09-23T03:29:45.283Z,1014.81
2017-09-23T03:30:45.273Z,1014.77
2017-09-23T03:31:45.264Z,1014.76
2017-09-23T03:32:45.245Z,1014.76
2017-09-23T03:33:45.239Z,1014.73
2017-09-23T03:34:45.224Z,1014.74
2017-09-23T03:35:45.207Z,1014.77
2017-09-23T03:36:45.197Z,1014.75
2017-09-23T03:37:45.187Z,1014.75
2017-09-23T03:38:45.172Z,1014.77
2017-09-23T03:39:45.158Z,1014.75
2017-09-23T03:40:45.144Z,1014.73
2017-09-23T03:41:45.133Z,1014.8
2017-09-23T03:42:45.122Z,1014.77
2017-09-23T03:43:45.111Z,1014.77
2017-09-23T03:44:45.098Z,1014.76
2017-09-23T03:45:45.087Z,1014.79
2017-09-23T03:46:45.072Z,1014.78
2017-09-23T03:47:45.059Z,1014.82
2017-09-23T03:48:45.046Z,1014.78
2017-09-23T03:49:45.032Z,1014.82
2017-09-23T03:50:45.020Z,1014.79
2017-09-23T03:51:45.009Z,1014.8
2017-09-23T03:52:44.995Z,1014.79
2017-09-23T03:53:45.186Z,1014.81
2017-09-23T03:54:44.970Z,1014.83
2017-09-23T03:55:44.956Z,1014.76
2017-09-23T03:56:44.948Z,1014.77
2017-09-23T03:57:44.933Z,1014.76
2017-09-23T03:58:44.922Z,1014.77
2017-09-23T03:59:44.907Z,1014.74
2017-09-23T04:00:44.896Z,1014.77
2017-09-23T04:01:44.885Z,1014.77
2017-09-23T04:02:44.871Z,1014.79
2017-09-23T04:03:44.858Z,1014.8
2017-09-23T04:04:44.846Z,1014.81
2017-09-23T04:05:44.834Z,1014.81
2017-09-23T04:06:44.820Z,1014.82
2017-09-23T04:07:44.810Z,1014.79
2017-09-23T04:08:44.806Z,1014.79
2017-09-23T04:09:44.783Z,1014.77
2017-09-23T04:10:44.771Z,1014.78
2017-09-23T04:11:44.809Z,1014.77
2017-09-23T04:12:44.744Z,1014.76
2017-09-23T04:13:44.733Z,1014.79
2017-09-23T04:14:44.723Z,1014.8
2017-09-23T04:15:44.707Z,1014.78
2017-09-23T04:16:44.696Z,1014.84
2017-09-23T04:17:44.680Z,1014.84
2017-09-23T04:18:44.669Z,1014.79
2017-09-23T04:19:44.655Z,1014.81
2017-09-23T04:20:44.649Z,1014.8
2017-09-23T04:21:44.631Z,1014.79
2017-09-23T04:22:44.618Z,1014.82
2017-09-23T04:23:44.605Z,1014.83
2017-09-23T04:24:44.597Z,1014.83
2017-09-23T04:25:44.583Z,1014.83
2017-09-23T04:26:44.566Z,1014.86
2017-09-23T04:27:44.555Z,1014.84
2017-09-23T04:28:44.543Z,1014.85
2017-09-23T04:29:44.533Z,1014.83
2017-09-23T04:30:44.518Z,1014.84
2017-09-23T04:31:44.560Z,1014.86
2017-09-23T04:32:44.494Z,1014.89
2017-09-23T04:33:44.481Z,1014.84
2017-09-23T04:34:44.465Z,1014.86
2017-09-23T04:35:44.454Z,1014.85
2017-09-23T04:36:44.442Z,1014.85
2017-09-23T04:37:44.429Z,1014.87
2017-09-23T04:38:44.415Z,1014.89
2017-09-23T04:39:44.405Z,1014.88
2017-09-23T04:40:44.393Z,1014.88
2017-09-23T04:41:44.379Z,1014.87
2017-09-23T04:42:44.366Z,1014.87
2017-09-23T04:43:44.366Z,1014.91
2017-09-23T04:44:44.342Z,1014.92
2017-09-23T04:45:44.330Z,1014.93
2017-09-23T04:46:44.318Z,1014.94
2017-09-23T04:47:44.304Z,1014.97
2017-09-23T04:48:44.288Z,1014.97
2017-09-23T04:49:44.278Z,1014.96
2017-09-23T04:50:44.270Z,1014.96
2017-09-23T04:51:44.254Z,1014.99
2017-09-23T04:52:44.239Z,1014.96
2017-09-23T04:53:44.225Z,1014.95
2017-09-23T04:54:44.264Z,1014.97
2017-09-23T04:55:44.204Z,1014.97
2017-09-23T04:56:44.187Z,1014.98
2017-09-23T04:57:44.187Z,1014.97
2017-09-23T04:58:44.164Z,1015
2017-09-23T04:59:44.222Z,1015.01
2017-09-23T05:00:44.138Z,1014.99
2017-09-23T05:01:44.126Z,1015.01
2017-09-23T05:02:44.112Z,1015.03
2017-09-23T05:03:44.102Z,1015.02
2017-09-23T05:04:44.090Z,1015.04
2017-09-23T05:05:44.075Z,1015.05
2017-09-23T05:06:44.065Z,1015.04
2017-09-23T05:07:44.048Z,1015.06
2017-09-23T05:08:44.038Z,1015.07
2017-09-23T05:09:44.023Z,1015.09
2017-09-23T05:10:44.011Z,1015.13
2017-09-23T05:11:43.999Z,1015.11
2017-09-23T05:12:43.987Z,1015.1
2017-09-23T05:13:43.972Z,1015.14
2017-09-23T05:14:43.961Z,1015.15
2017-09-23T05:15:43.950Z,1015.15
2017-09-23T05:16:43.934Z,1015.17
2017-09-23T05:17:43.923Z,1015.2
2017-09-23T05:18:43.909Z,1015.18
2017-09-23T05:19:43.894Z,1015.17
2017-09-23T05:20:43.886Z,1015.19
2017-09-23T05:21:43.870Z,1015.18
2017-09-23T05:22:43.858Z,1015.2
2017-09-23T05:23:43.845Z,1015.16
2017-09-23T05:24:43.833Z,1015.21
2017-09-23T05:25:43.823Z,1015.19
2017-09-23T05:26:43.812Z,1015.22
2017-09-23T05:27:43.795Z,1015.24
2017-09-23T05:28:43.786Z,1015.22
2017-09-23T05:29:43.770Z,1015.19
2017-09-23T05:30:43.757Z,1015.21
2017-09-23T05:31:43.745Z,1015.22
2017-09-23T05:32:43.734Z,1015.2
2017-09-23T05:33:43.721Z,1015.22
2017-09-23T05:34:43.710Z,1015.22
2017-09-23T05:35:43.691Z,1015.25
2017-09-23T05:36:43.678Z,1015.27
2017-09-23T05:37:43.666Z,1015.29
2017-09-23T05:38:43.654Z,1015.27
2017-09-23T05:39:43.642Z,1015.29
2017-09-23T05:40:43.630Z,1015.26
2017-09-23T05:41:43.620Z,1015.28
2017-09-23T05:42:43.603Z,1015.26
2017-09-23T05:43:43.589Z,1015.25
2017-09-23T05:44:43.577Z,1015.27
2017-09-23T05:45:43.566Z,1015.25
2017-09-23T05:46:43.553Z,1015.3
2017-09-23T05:47:43.538Z,1015.25
2017-09-23T05:48:43.525Z,1015.29
2017-09-23T05:49:43.513Z,1015.28
2017-09-23T05:50:43.499Z,1015.29
2017-09-23T05:51:43.486Z,1015.3
2017-09-23T05:52:43.474Z,1015.3
2017-09-23T05:53:43.664Z,1015.32
2017-09-23T05:54:43.450Z,1015.32
2017-09-23T05:55:43.435Z,1015.34
2017-09-23T05:56:43.423Z,1015.33
2017-09-23T05:57:43.411Z,1015.32
2017-09-23T05:58:43.403Z,1015.32
2017-09-23T05:59:43.386Z,1015.33
2017-09-23T06:00:43.372Z,1015.37
2017-09-23T06:01:43.362Z,1015.37
2017-09-23T06:02:43.345Z,1015.39
2017-09-23T06:03:43.334Z,1015.38
2017-09-23T06:04:43.322Z,1015.39
2017-09-23T06:05:43.316Z,1015.41
2017-09-23T06:06:43.295Z,1015.46
2017-09-23T06:07:43.281Z,1015.45
2017-09-23T06:08:43.298Z,1015.44
2017-09-23T06:09:43.256Z,1015.42
2017-09-23T06:10:43.243Z,1015.45
2017-09-23T06:11:43.230Z,1015.43
2017-09-23T06:12:43.215Z,1015.43
2017-09-23T06:13:43.204Z,1015.45
2017-09-23T06:14:43.191Z,1015.46
2017-09-23T06:15:43.178Z,1015.48
2017-09-23T06:16:43.165Z,1015.47
2017-09-23T06:17:43.153Z,1015.43
2017-09-23T06:18:43.141Z,1015.46
2017-09-23T06:19:43.132Z,1015.45
2017-09-23T06:20:43.115Z,1015.49
2017-09-23T06:21:43.103Z,1015.46
2017-09-23T06:22:43.089Z,1015.5
2017-09-23T06:23:43.074Z,1015.5
2017-09-23T06:24:43.061Z,1015.51
2017-09-23T06:25:43.048Z,1015.49
2017-09-23T06:26:43.038Z,1015.49
2017-09-23T06:27:43.023Z,1015.48
2017-09-23T06:28:43.011Z,1015.53
2017-09-23T06:29:42.999Z,1015.51
2017-09-23T06:30:42.988Z,1015.51
2017-09-23T06:31:42.972Z,1015.48
2017-09-23T06:32:42.960Z,1015.5
2017-09-23T06:33:42.947Z,1015.51
2017-09-23T06:34:42.932Z,1015.52
2017-09-23T06:35:42.920Z,1015.52
2017-09-23T06:36:42.908Z,1015.51
2017-09-23T06:37:42.896Z,1015.51
2017-09-23T06:38:42.883Z,1015.54
2017-09-23T06:39:42.870Z,1015.53
2017-09-23T06:40:42.858Z,1015.57
2017-09-23T06:41:42.845Z,1015.56
2017-09-23T06:42:42.863Z,1015.52
2017-09-23T06:43:42.818Z,1015.5
2017-09-23T06:44:42.806Z,1015.49
2017-09-23T06:45:42.793Z,1015.52
2017-09-23T06:46:42.783Z,1015.54
2017-09-23T06:47:42.768Z,1015.5
2017-09-23T06:48:42.755Z,1015.52
2017-09-23T06:49:42.742Z,1015.53
2017-09-23T06:50:42.727Z,1015.54
2017-09-23T06:51:42.715Z,1015.55
2017-09-23T06:52:42.703Z,1015.54
2017-09-23T06:53:42.689Z,1015.53
2017-09-23T06:54:42.680Z,1015.51
2017-09-23T06:55:42.670Z,1015.54
2017-09-23T06:56:42.688Z,1015.54
2017-09-23T06:57:42.644Z,1015.55
2017-09-23T06:58:42.628Z,1015.52
2017-09-23T06:59:42.616Z,1015.54
2017-09-23T07:00:42.601Z,1015.55
2017-09-23T07:01:42.638Z,1015.59
2017-09-23T07:02:42.579Z,1015.52
2017-09-23T07:03:42.563Z,1015.54
2017-09-23T07:04:42.549Z,1015.58
2017-09-23T07:05:42.537Z,1015.54
2017-09-23T07:06:42.526Z,1015.58
2017-09-23T07:07:42.511Z,1015.6
2017-09-23T07:08:42.499Z,1015.6
2017-09-23T07:09:42.487Z,1015.63
2017-09-23T07:10:42.480Z,1015.61
2017-09-23T07:11:42.461Z,1015.63
2017-09-23T07:12:42.448Z,1015.63
2017-09-23T07:13:42.435Z,1015.63
2017-09-23T07:14:42.424Z,1015.65
2017-09-23T07:15:42.411Z,1015.65
2017-09-23T07:16:42.400Z,1015.7
2017-09-23T07:17:42.386Z,1015.73
2017-09-23T07:18:42.376Z,1015.73
2017-09-23T07:19:42.362Z,1015.71
2017-09-23T07:20:42.351Z,1015.72
2017-09-23T07:21:42.342Z,1015.71
2017-09-23T07:22:42.327Z,1015.74
2017-09-23T07:23:42.311Z,1015.72
2017-09-23T07:24:42.300Z,1015.77
2017-09-23T07:25:42.286Z,1015.75
2017-09-23T07:26:42.274Z,1015.77
2017-09-23T07:27:42.262Z,1015.78
2017-09-23T07:28:42.247Z,1015.75
2017-09-23T07:29:42.234Z,1015.76
2017-09-23T07:30:42.222Z,1015.77
2017-09-23T07:31:42.211Z,1015.77
2017-09-23T07:32:42.197Z,1015.8
2017-09-23T07:33:42.185Z,1015.78
2017-09-23T07:34:42.173Z,1015.82
2017-09-23T07:35:42.161Z,1015.81
2017-09-23T07:36:42.145Z,1015.89
2017-09-23T07:37:42.137Z,1015.87
2017-09-23T07:38:42.124Z,1015.83
2017-09-23T07:39:42.112Z,1015.86
2017-09-23T07:40:42.097Z,1015.83
2017-09-23T07:41:42.083Z,1015.85
2017-09-23T07:42:42.078Z,1015.88
2017-09-23T07:43:42.060Z,1015.85
2017-09-23T07:44:42.051Z,1015.89
2017-09-23T07:45:42.035Z,1015.88
2017-09-23T07:46:42.025Z,1015.88
2017-09-23T07:47:42.009Z,1015.92
2017-09-23T07:48:41.999Z,1015.95
2017-09-23T07:49:41.984Z,1015.94
2017-09-23T07:50:41.976Z,1015.97
2017-09-23T07:51:41.959Z,1015.97
2017-09-23T07:52:41.954Z,1016.01
2017-09-23T07:53:41.935Z,1015.98
2017-09-23T07:54:41.921Z,1016.02
2017-09-23T07:55:41.908Z,1016.01
2017-09-23T07:56:41.897Z,1016.05
2017-09-23T07:57:41.884Z,1016.09
2017-09-23T07:58:41.873Z,1016.05
2017-09-23T07:59:41.858Z,1016.06
2017-09-23T08:00:41.847Z,1016.08
2017-09-23T08:01:41.836Z,1016.1
2017-09-23T08:02:41.820Z,1016.13
2017-09-23T08:03:41.811Z,1016.08
2017-09-23T08:04:41.796Z,1016.11
2017-09-23T08:05:41.785Z,1016.09
2017-09-23T08:06:41.770Z,1016.15
2017-09-23T08:07:41.756Z,1016.15
2017-09-23T08:08:41.748Z,1016.16
2017-09-23T08:09:41.732Z,1016.17
2017-09-23T08:10:41.782Z,1016.19
2017-09-23T08:11:41.706Z,1016.19
2017-09-23T08:12:41.697Z,1016.21
2017-09-23T08:13:41.681Z,1016.21
2017-09-23T08:14:41.668Z,1016.21
2017-09-23T08:15:41.657Z,1016.24
2017-09-23T08:16:41.647Z,1016.27
2017-09-23T08:17:41.630Z,1016.3
2017-09-23T08:18:41.622Z,1016.28
2017-09-23T08:19:41.606Z,1016.31
2017-09-23T08:20:41.595Z,1016.31
2017-09-23T08:21:41.581Z,1016.33
2017-09-23T08:22:41.568Z,1016.36
2017-09-23T08:23:41.555Z,1016.4
2017-09-23T08:24:41.542Z,1016.43
2017-09-23T08:25:41.531Z,1016.39
2017-09-23T08:26:41.525Z,1016.43
2017-09-23T08:27:41.504Z,1016.46
2017-09-23T08:28:41.490Z,1016.44
2017-09-23T08:29:41.477Z,1016.45
2017-09-23T08:30:41.466Z,1016.46
2017-09-23T08:31:41.453Z,1016.44
2017-09-23T08:32:41.441Z,1016.47
2017-09-23T08:33:41.428Z,1016.49
2017-09-23T08:34:41.422Z,1016.51
2017-09-23T08:35:41.404Z,1016.51
2017-09-23T08:36:41.393Z,1016.5
2017-09-23T08:37:41.378Z,1016.5
2017-09-23T08:38:41.367Z,1016.48
2017-09-23T08:39:41.351Z,1016.45
2017-09-23T08:40:41.341Z,1016.46
2017-09-23T08:41:41.328Z,1016.47
2017-09-23T08:42:41.317Z,1016.48
2017-09-23T08:43:41.303Z,1016.52
2017-09-23T08:44:41.291Z,1016.51
2017-09-23T08:45:41.279Z,1016.51
2017-09-23T08:46:41.264Z,1016.51
2017-09-23T08:47:41.254Z,1016.51
2017-09-23T08:48:41.239Z,1016.54
2017-09-23T08:49:41.232Z,1016.52
2017-09-23T08:50:41.217Z,1016.49
2017-09-23T08:51:41.203Z,1016.49
2017-09-23T08:52:41.244Z,1016.44
2017-09-23T08:53:41.177Z,1016.43
2017-09-23T08:54:41.166Z,1016.44
2017-09-23T08:55:41.156Z,1016.43
2017-09-23T08:56:41.141Z,1016.43
2017-09-23T08:57:41.131Z,1016.42
2017-09-23T08:58:41.120Z,1016.45
2017-09-23T08:59:41.109Z,1016.44
2017-09-23T09:00:41.093Z,1016.43
2017-09-23T09:01:41.083Z,1016.42
2017-09-23T09:02:41.076Z,1016.4
2017-09-23T09:03:41.057Z,1016.44
2017-09-23T09:04:41.056Z,1016.4
2017-09-23T09:05:41.034Z,1016.43
2017-09-23T09:06:41.023Z,1016.45
2017-09-23T09:07:41.012Z,1016.45
2017-09-23T09:08:40.999Z,1016.51
2017-09-23T09:09:40.989Z,1016.49
2017-09-23T09:10:40.976Z,1016.5
2017-09-23T09:11:40.963Z,1016.51
2017-09-23T09:12:40.952Z,1016.5
2017-09-23T09:13:40.991Z,1016.51
2017-09-23T09:14:40.928Z,1016.53
2017-09-23T09:15:40.918Z,1016.51
2017-09-23T09:16:40.906Z,1016.54
2017-09-23T09:17:40.895Z,1016.51
2017-09-23T09:18:40.882Z,1016.52
2017-09-23T09:19:40.870Z,1016.51
2017-09-23T09:20:40.863Z,1016.51
2017-09-23T09:21:40.847Z,1016.56
2017-09-23T09:22:40.837Z,1016.54
2017-09-23T09:23:40.863Z,1016.55
2017-09-23T09:24:40.812Z,1016.55
2017-09-23T09:25:40.803Z,1016.55
2017-09-23T09:26:40.786Z,1016.55
2017-09-23T09:27:40.778Z,1016.55
2017-09-23T09:28:40.766Z,1016.54
2017-09-23T09:29:40.754Z,1016.55
2017-09-23T09:30:40.740Z,1016.53
2017-09-23T09:31:40.729Z,1016.58
2017-09-23T09:32:40.718Z,1016.55
2017-09-23T09:33:40.709Z,1016.53
2017-09-23T09:34:40.699Z,1016.55
2017-09-23T09:35:40.683Z,1016.56
2017-09-23T09:36:40.671Z,1016.52
2017-09-23T09:37:40.657Z,1016.53
2017-09-23T09:38:40.645Z,1016.51
2017-09-23T09:39:40.638Z,1016.54
2017-09-23T09:40:40.623Z,1016.5
2017-09-23T09:41:40.614Z,1016.52
2017-09-23T09:42:40.597Z,1016.47
2017-09-23T09:43:40.587Z,1016.49
2017-09-23T09:44:40.574Z,1016.5
2017-09-23T09:45:40.565Z,1016.51
2017-09-23T09:46:40.555Z,1016.55
2017-09-23T09:47:40.539Z,1016.51
2017-09-23T09:48:40.526Z,1016.5
2017-09-23T09:49:40.517Z,1016.54
2017-09-23T09:50:40.504Z,1016.5
2017-09-23T09:51:40.495Z,1016.51
2017-09-23T09:52:40.485Z,1016.5
2017-09-23T09:53:40.469Z,1016.5
2017-09-23T09:54:40.459Z,1016.5
2017-09-23T09:55:40.445Z,1016.51
2017-09-23T09:56:40.434Z,1016.49
2017-09-23T09:57:40.424Z,1016.51
2017-09-23T09:58:40.412Z,1016.48
2017-09-23T09:59:40.399Z,1016.54
2017-09-23T10:00:40.388Z,1016.49
2017-09-23T10:01:40.378Z,1016.55
2017-09-23T10:02:40.364Z,1016.51
2017-09-23T10:03:40.354Z,1016.51
2017-09-23T10:04:40.343Z,1016.51
2017-09-23T10:05:40.331Z,1016.51
2017-09-23T10:06:40.322Z,1016.52
2017-09-23T10:07:40.307Z,1016.51
2017-09-23T10:08:40.297Z,1016.51
2017-09-23T10:09:40.284Z,1016.55
2017-09-23T10:10:40.273Z,1016.53
2017-09-23T10:11:40.262Z,1016.55
2017-09-23T10:12:40.252Z,1016.54
2017-09-23T10:13:40.238Z,1016.52
2017-09-23T10:14:40.225Z,1016.51
2017-09-23T10:15:40.213Z,1016.49
2017-09-23T10:16:40.204Z,1016.48
2017-09-23T10:17:40.191Z,1016.51
2017-09-23T10:18:40.182Z,1016.48
2017-09-23T10:19:40.168Z,1016.5
2017-09-23T10:20:40.157Z,1016.46
2017-09-23T10:21:40.144Z,1016.47
2017-09-23T10:22:40.131Z,1016.48
2017-09-23T10:23:40.120Z,1016.44
2017-09-23T10:24:40.108Z,1016.46
2017-09-23T10:25:40.097Z,1016.44
2017-09-23T10:26:40.086Z,1016.47
2017-09-23T10:27:40.077Z,1016.45
2017-09-23T10:28:40.063Z,1016.47
2017-09-23T10:29:40.054Z,1016.46
2017-09-23T10:30:40.043Z,1016.46
2017-09-23T10:31:40.033Z,1016.47
2017-09-23T10:32:40.016Z,1016.48
2017-09-23T10:33:40.004Z,1016.46
2017-09-23T10:34:39.993Z,1016.45
2017-09-23T10:35:39.981Z,1016.4
2017-09-23T10:36:39.970Z,1016.45
2017-09-23T10:37:39.961Z,1016.47
2017-09-23T10:38:39.951Z,1016.43
2017-09-23T10:39:39.942Z,1016.43
2017-09-23T10:40:39.924Z,1016.41
2017-09-23T10:41:39.916Z,1016.4
2017-09-23T10:42:39.904Z,1016.41
2017-09-23T10:43:39.893Z,1016.38
2017-09-23T10:44:39.878Z,1016.43
2017-09-23T10:45:39.871Z,1016.43
2017-09-23T10:46:39.855Z,1016.38
2017-09-23T10:47:39.844Z,1016.41
2017-09-23T10:48:39.831Z,1016.39
2017-09-23T10:49:39.820Z,1016.41
2017-09-23T10:50:39.813Z,1016.4
2017-09-23T10:51:39.798Z,1016.41
2017-09-23T10:52:39.787Z,1016.42
2017-09-23T10:53:39.780Z,1016.43
2017-09-23T10:54:39.797Z,1016.4
2017-09-23T10:55:39.761Z,1016.43
2017-09-23T10:56:39.746Z,1016.4
2017-09-23T10:57:39.732Z,1016.39
2017-09-23T10:58:39.722Z,1016.4
2017-09-23T10:59:39.710Z,1016.35
2017-09-23T11:00:39.701Z,1016.36
2017-09-23T11:01:39.689Z,1016.35
2017-09-23T11:02:39.676Z,1016.35
2017-09-23T11:03:39.666Z,1016.34
2017-09-23T11:04:39.655Z,1016.35
2017-09-23T11:05:39.645Z,1016.36
2017-09-23T11:06:39.635Z,1016.37
2017-09-23T11:07:39.622Z,1016.39
2017-09-23T11:08:39.611Z,1016.35
2017-09-23T11:09:39.603Z,1016.33
2017-09-23T11:10:39.593Z,1016.29
2017-09-23T11:11:39.580Z,1016.25
2017-09-23T11:12:39.572Z,1016.24
2017-09-23T11:13:39.558Z,1016.22
2017-09-23T11:14:39.549Z,1016.2
2017-09-23T11:15:39.538Z,1016.21
2017-09-23T11:16:39.530Z,1016.28
2017-09-23T11:17:39.520Z,1016.26
2017-09-23T11:18:39.510Z,1016.25
2017-09-23T11:19:39.498Z,1016.23
2017-09-23T11:20:39.488Z,1016.21
2017-09-23T11:21:39.480Z,1016.2
2017-09-23T11:22:39.472Z,1016.19
2017-09-23T11:23:39.460Z,1016.21
2017-09-23T11:24:39.454Z,1016.19
2017-09-23T11:25:39.444Z,1016.16
2017-09-23T11:26:39.437Z,1016.17
2017-09-23T11:27:39.426Z,1016.17
2017-09-23T11:28:39.417Z,1016.2
2017-09-23T11:29:39.408Z,1016.19
2017-09-23T11:30:39.401Z,1016.24
2017-09-23T11:31:39.390Z,1016.21
2017-09-23T11:32:39.386Z,1016.2
2017-09-23T11:33:39.375Z,1016.21
2017-09-23T11:34:39.366Z,1016.24
2017-09-23T11:35:39.357Z,1016.21
2017-09-23T11:36:39.350Z,1016.2
2017-09-23T11:37:39.340Z,1016.19
2017-09-23T11:38:39.335Z,1016.19
2017-09-23T11:39:39.323Z,1016.16
2017-09-23T11:40:39.315Z,1016.13
2017-09-23T11:41:39.306Z,1016.14
2017-09-23T11:42:39.299Z,1016.09
2017-09-23T11:43:39.290Z,1016.12
2017-09-23T11:44:39.282Z,1016.09
2017-09-23T11:45:39.275Z,1016.06
2017-09-23T11:46:39.263Z,1016.07
2017-09-23T11:47:39.260Z,1016.08
2017-09-23T11:48:39.246Z,1016.12
2017-09-23T11:49:39.236Z,1016.13
2017-09-23T11:50:39.229Z,1016.07
2017-09-23T11:51:39.222Z,1016.07
2017-09-23T11:52:39.212Z,1016.12
2017-09-23T11:53:39.203Z,1016.04
2017-09-23T11:54:39.398Z,1016.07
2017-09-23T11:55:39.185Z,1016.09
2017-09-23T11:56:39.175Z,1016.11
2017-09-23T11:57:39.174Z,1016.07
2017-09-23T11:58:39.158Z,1016.04
2017-09-23T11:59:39.150Z,1016.04
2017-09-23T12:00:39.141Z,1016.05
2017-09-23T12:01:39.132Z,1016.05
2017-09-23T12:02:39.126Z,1016.01
2017-09-23T12:03:39.113Z,1016.02
2017-09-23T12:04:39.104Z,1016
2017-09-23T12:05:39.094Z,1015.99
2017-09-23T12:06:39.089Z,1015.96
2017-09-23T12:07:39.078Z,1015.93
2017-09-23T12:08:39.069Z,1015.95